Time;durP1;ratioP1;P1;durP2;ratioP2;P2;SDS_P1;SDS_P2;PMS_P1;PMS_P2;Temp;Humidity;BMP_temperature;BMP_pressure;BME280_temperature;BME280_humidity;BME280_pressure;Samples;Min_cycle;Max_cycle;Signal;HPM_P1;HPM_P2
2023/03/18 00:00:46;;;;;;;8.82;6.30;;;11.50;99.90;;;;;;4901144;28;90423;-30
2023/03/18 00:03:12;;;;;;;9.00;6.35;;;11.50;99.90;;;;;;4902316;28;90101;-31
2023/03/18 00:05:38;;;;;;;10.77;5.93;;;11.50;99.90;;;;;;4901100;28;89634;-29
2023/03/18 00:08:05;;;;;;;9.23;5.70;;;11.50;99.90;;;;;;4902041;28;88953;-31
2023/03/18 00:10:32;;;;;;;9.82;5.97;;;11.50;99.90;;;;;;4901617;28;90697;-30
2023/03/18 00:12:58;;;;;;;8.48;5.82;;;11.50;99.90;;;;;;4901080;28;90218;-31
2023/03/18 00:15:24;;;;;;;5.95;5.43;;;11.50;99.90;;;;;;4901840;28;89177;-32
2023/03/18 00:17:50;;;;;;;9.27;6.05;;;11.50;99.90;;;;;;4902031;28;88186;-29
2023/03/18 00:20:17;;;;;;;6.85;4.82;;;11.50;99.90;;;;;;4901203;28;90184;-28
2023/03/18 00:22:44;;;;;;;7.57;5.28;;;11.50;99.90;;;;;;4901137;28;89414;-29
2023/03/18 00:25:11;;;;;;;7.22;6.07;;;11.50;99.90;;;;;;4901816;28;89499;-32
2023/03/18 00:27:38;;;;;;;7.87;5.77;;;11.40;99.90;;;;;;4902279;28;89768;-29
2023/03/18 00:30:05;;;;;;;6.70;5.47;;;11.40;99.90;;;;;;4900667;28;90233;-29
2023/03/18 00:32:32;;;;;;;9.57;5.45;;;11.50;99.90;;;;;;4901788;28;89636;-32
2023/03/18 00:34:57;;;;;;;10.80;6.40;;;11.50;99.90;;;;;;4900608;28;90564;-28
2023/03/18 00:37:29;;;;;;;7.65;6.45;;;11.50;99.90;;;;;;4901526;28;88320;-30
2023/03/18 00:40:04;;;;;;;6.85;6.07;;;11.40;99.90;;;;;;4901083;28;89940;-29
2023/03/18 00:42:36;;;;;;;9.65;5.70;;;11.40;99.90;;;;;;4901441;28;90198;-30
2023/03/18 00:45:03;;;;;;;10.18;5.63;;;11.40;99.90;;;;;;4888421;28;89576;-30
2023/03/18 00:47:29;;;;;;;6.93;6.25;;;11.40;99.90;;;;;;4901723;28;89781;-29
2023/03/18 00:49:55;;;;;;;10.32;6.10;;;11.40;99.90;;;;;;4901699;28;92125;-29
2023/03/18 00:52:21;;;;;;;5.85;5.13;;;11.40;99.90;;;;;;4926965;28;89624;-29
2023/03/18 00:54:47;;;;;;;8.93;6.10;;;11.30;99.90;;;;;;4903082;28;89799;-30
2023/03/18 00:57:13;;;;;;;5.47;4.97;;;11.30;99.90;;;;;;4920740;28;90139;-29
2023/03/18 00:59:39;;;;;;;13.30;6.43;;;11.30;99.90;;;;;;4920512;28;90621;-29
2023/03/18 01:02:05;;;;;;;7.10;6.40;;;11.20;99.90;;;;;;4920242;28;90163;-29
2023/03/18 01:04:31;;;;;;;7.50;6.60;;;11.20;99.90;;;;;;4903122;28;90168;-28
2023/03/18 01:06:57;;;;;;;7.22;6.30;;;11.20;99.90;;;;;;4920151;28;87710;-30
2023/03/18 01:09:22;;;;;;;8.65;5.95;;;11.10;99.90;;;;;;4919935;28;91802;-31
2023/03/18 01:11:48;;;;;;;10.55;7.35;;;11.10;99.90;;;;;;4919558;28;89964;-28
2023/03/18 01:14:14;;;;;;;8.80;6.00;;;11.10;99.90;;;;;;4920197;28;89349;-30
2023/03/18 01:16:39;;;;;;;7.35;6.22;;;11.00;99.90;;;;;;4919226;28;88110;-34
2023/03/18 01:19:05;;;;;;;7.40;5.40;;;11.00;99.90;;;;;;4920175;28;90423;-29
2023/03/18 01:21:31;;;;;;;10.63;5.90;;;11.00;99.90;;;;;;4920178;28;89322;-31
2023/03/18 01:23:59;;;;;;;10.18;5.60;;;10.90;99.90;;;;;;4919755;28;89604;-29
2023/03/18 01:26:25;;;;;;;8.55;6.35;;;10.90;99.90;;;;;;4919584;28;89170;-30
2023/03/18 01:28:51;;;;;;;9.32;6.43;;;10.90;99.90;;;;;;4919231;28;90252;-30
2023/03/18 01:31:17;;;;;;;6.47;5.68;;;10.80;99.90;;;;;;4919601;28;90002;-29
2023/03/18 01:33:43;;;;;;;8.55;6.20;;;10.80;99.90;;;;;;4920242;28;89048;-31
2023/03/18 01:36:10;;;;;;;6.53;6.03;;;10.80;99.90;;;;;;4919753;28;87786;-28
2023/03/18 01:38:36;;;;;;;8.00;6.13;;;10.70;99.90;;;;;;4920361;28;89863;-31
2023/03/18 01:41:03;;;;;;;7.47;5.57;;;10.70;99.90;;;;;;4919203;28;89844;-29
2023/03/18 01:43:32;;;;;;;7.38;6.60;;;10.60;99.90;;;;;;4920345;28;90224;-32
2023/03/18 01:46:00;;;;;;;8.38;6.80;;;10.60;99.90;;;;;;4919262;28;89193;-28
2023/03/18 01:48:34;;;;;;;5.53;5.03;;;10.60;99.90;;;;;;4923795;28;90196;-29
2023/03/18 01:51:05;;;;;;;11.40;6.15;;;10.60;99.90;;;;;;4921975;28;89654;-31
2023/03/18 01:53:37;;;;;;;7.35;6.65;;;10.50;99.90;;;;;;4923487;28;90881;-28
2023/03/18 01:56:05;;;;;;;7.57;6.00;;;10.50;99.90;;;;;;4923102;28;89510;-31
2023/03/18 01:58:36;;;;;;;7.85;6.32;;;10.50;99.90;;;;;;4923277;28;91321;-32
2023/03/18 02:01:28;;;;;;;7.32;5.90;;;10.50;99.90;;;;;;4905522;28;89456;-27
2023/03/18 02:03:55;;;;;;;5.75;4.97;;;10.60;99.90;;;;;;4911655;28;89607;-29
2023/03/18 02:06:21;;;;;;;10.23;6.72;;;10.60;99.90;;;;;;4923451;28;88807;-30
2023/03/18 02:08:47;;;;;;;9.00;5.97;;;10.60;99.90;;;;;;4923165;28;90229;-30
2023/03/18 02:11:13;;;;;;;9.10;6.22;;;10.60;99.90;;;;;;4923370;28;89580;-29
2023/03/18 02:13:41;;;;;;;6.68;6.07;;;10.60;99.90;;;;;;4922922;28;89440;-29
2023/03/18 02:16:24;;;;;;;14.80;7.53;;;10.50;99.90;;;;;;4923053;28;89485;-30
2023/03/18 02:18:53;;;;;;;10.60;5.93;;;10.50;99.90;;;;;;4922184;28;90120;-29
2023/03/18 02:21:38;;;;;;;10.77;6.72;;;10.50;99.90;;;;;;4922754;28;89392;-31
2023/03/18 02:24:33;;;;;;;8.70;7.22;;;10.40;99.90;;;;;;4912100;28;90447;-28
2023/03/18 02:27:24;;;;;;;8.90;6.43;;;10.40;99.90;;;;;;4922154;28;88341;-30
2023/03/18 02:29:54;;;;;;;8.88;6.32;;;10.30;99.90;;;;;;4912300;28;88312;-28
2023/03/18 02:32:20;;;;;;;10.70;6.68;;;10.20;99.90;;;;;;4922905;28;90128;-31
2023/03/18 02:34:47;;;;;;;7.75;6.60;;;10.20;99.90;;;;;;4922395;28;88400;-31
2023/03/18 02:37:12;;;;;;;7.72;6.88;;;10.20;99.90;;;;;;4922904;28;90364;-30
2023/03/18 02:39:38;;;;;;;9.88;6.13;;;10.10;99.90;;;;;;4922789;28;89337;-29
2023/03/18 02:42:04;;;;;;;8.50;6.47;;;10.10;99.90;;;;;;4921045;28;91518;-29
2023/03/18 02:44:30;;;;;;;14.25;7.03;;;10.10;99.90;;;;;;4922861;28;90419;-29
2023/03/18 02:47:05;;;;;;;9.10;7.13;;;10.10;99.90;;;;;;4922017;28;89305;-30
2023/03/18 02:49:31;;;;;;;7.93;7.13;;;10.00;99.90;;;;;;4922201;28;90307;-30
2023/03/18 02:51:57;;;;;;;9.90;7.63;;;10.00;99.90;;;;;;4922082;28;89074;-27
2023/03/18 02:54:28;;;;;;;9.82;6.80;;;9.90;99.90;;;;;;4922017;28;88674;-31
2023/03/18 02:56:54;;;;;;;9.40;6.95;;;9.90;99.90;;;;;;4922555;28;89008;-29
2023/03/18 02:59:21;;;;;;;8.88;7.78;;;9.90;99.90;;;;;;4921749;28;90375;-32
2023/03/18 03:01:50;;;;;;;7.38;6.70;;;9.90;99.90;;;;;;4922549;28;89390;-31
2023/03/18 03:04:18;;;;;;;10.82;6.88;;;9.80;99.90;;;;;;4905031;28;89585;-29
2023/03/18 03:06:44;;;;;;;11.23;8.10;;;9.80;99.90;;;;;;4921376;28;89269;-31
2023/03/18 03:09:14;;;;;;;20.92;7.82;;;9.80;99.90;;;;;;4920508;28;91430;-29
2023/03/18 03:11:41;;;;;;;12.55;8.13;;;9.70;99.90;;;;;;4921968;28;89745;-34
2023/03/18 03:14:08;;;;;;;12.70;9.60;;;9.70;99.90;;;;;;4922731;28;89539;-31
2023/03/18 03:16:34;;;;;;;10.02;8.73;;;9.80;99.90;;;;;;4922515;28;89368;-30
2023/03/18 03:18:59;;;;;;;9.40;8.50;;;9.80;99.90;;;;;;4920983;28;90209;-31
2023/03/18 03:21:25;;;;;;;9.25;8.25;;;9.80;99.90;;;;;;4922047;28;89749;-32
2023/03/18 03:23:51;;;;;;;10.70;8.52;;;9.80;99.90;;;;;;4921149;28;88398;-29
2023/03/18 03:26:18;;;;;;;9.30;8.38;;;9.80;99.90;;;;;;4921990;28;88704;-31
2023/03/18 03:28:43;;;;;;;13.10;9.57;;;9.80;99.90;;;;;;4921892;28;89839;-31
2023/03/18 03:31:09;;;;;;;11.25;8.77;;;9.80;99.90;;;;;;4921042;28;90200;-28
2023/03/18 03:33:40;;;;;;;11.98;8.68;;;9.70;99.90;;;;;;4921670;28;89560;-29
2023/03/18 03:36:10;;;;;;;9.82;8.75;;;9.70;99.90;;;;;;4921912;28;89295;-28
2023/03/18 03:38:36;;;;;;;14.90;9.57;;;9.70;99.90;;;;;;4922146;28;90356;-32
2023/03/18 03:41:01;;;;;;;13.45;8.73;;;9.70;99.90;;;;;;4904183;28;89972;-30
2023/03/18 03:43:27;;;;;;;10.90;9.77;;;9.70;99.90;;;;;;4921139;28;89413;-30
2023/03/18 03:45:53;;;;;;;9.60;8.68;;;9.70;99.90;;;;;;4921245;28;88446;-30
2023/03/18 03:48:19;;;;;;;12.45;9.25;;;9.70;99.90;;;;;;4921419;28;91405;-30
2023/03/18 03:50:45;;;;;;;14.93;10.10;;;9.70;99.90;;;;;;4921168;28;89322;-30
2023/03/18 03:53:11;;;;;;;14.55;9.27;;;9.70;99.90;;;;;;4920970;28;90363;-29
2023/03/18 03:55:36;;;;;;;19.33;8.98;;;9.60;99.90;;;;;;4920541;28;89854;-29
2023/03/18 03:58:03;;;;;;;9.27;8.32;;;9.60;99.90;;;;;;4921249;28;89818;-31
2023/03/18 04:00:29;;;;;;;12.02;8.98;;;9.60;99.90;;;;;;4920870;28;89677;-32
2023/03/18 04:02:55;;;;;;;11.85;8.25;;;9.60;99.90;;;;;;4921294;28;89406;-31
2023/03/18 04:05:23;;;;;;;10.63;8.70;;;9.60;99.90;;;;;;4921346;28;87623;-28
2023/03/18 04:07:51;;;;;;;12.32;9.18;;;9.60;99.90;;;;;;4920960;28;90203;-31
2023/03/18 04:10:18;;;;;;;11.10;8.82;;;9.60;99.90;;;;;;4919743;28;89553;-27
2023/03/18 04:12:45;;;;;;;12.68;10.40;;;9.60;99.90;;;;;;4921198;28;87679;-27
2023/03/18 04:15:12;;;;;;;14.95;9.52;;;9.60;99.90;;;;;;4921174;28;90014;-31
2023/03/18 04:17:39;;;;;;;9.27;8.37;;;9.60;99.90;;;;;;4921147;28;89871;-29
2023/03/18 04:20:05;;;;;;;11.07;9.38;;;9.60;99.90;;;;;;4919767;28;90711;-29
2023/03/18 04:22:31;;;;;;;16.60;9.88;;;9.60;99.90;;;;;;4921483;28;90788;-29
2023/03/18 04:24:57;;;;;;;13.82;10.15;;;9.50;99.90;;;;;;4920664;28;88432;-30
2023/03/18 04:27:23;;;;;;;11.65;9.73;;;9.50;99.90;;;;;;4920102;28;90121;-29
2023/03/18 04:29:49;;;;;;;15.80;9.88;;;9.50;99.90;;;;;;4920512;28;91342;-29
2023/03/18 04:32:14;;;;;;;12.57;10.80;;;9.40;99.90;;;;;;4920768;28;90459;-29
2023/03/18 04:34:40;;;;;;;14.00;10.13;;;9.50;99.90;;;;;;4919973;28;90013;-28
2023/03/18 04:37:07;;;;;;;19.27;10.30;;;9.40;99.90;;;;;;4919932;28;90063;-28
2023/03/18 04:39:33;;;;;;;16.05;10.52;;;9.40;99.90;;;;;;4918681;28;89898;-32
2023/03/18 04:41:59;;;;;;;17.48;9.63;;;9.40;99.90;;;;;;4919737;28;89503;-28
2023/03/18 04:44:25;;;;;;;14.45;11.80;;;9.40;99.90;;;;;;4919944;28;90148;-29
2023/03/18 04:46:52;;;;;;;12.20;10.05;;;9.40;99.90;;;;;;4919837;28;89875;-28
2023/03/18 04:49:18;;;;;;;14.05;10.65;;;9.40;99.90;;;;;;4920016;28;89706;-28
2023/03/18 04:51:45;;;;;;;12.05;9.25;;;9.40;99.90;;;;;;4919298;28;89509;-30
2023/03/18 04:54:11;;;;;;;10.95;9.68;;;9.30;99.90;;;;;;4920616;28;88462;-32
2023/03/18 04:56:38;;;;;;;12.38;9.48;;;9.30;99.90;;;;;;4919727;28;89827;-30
2023/03/18 04:59:05;;;;;;;14.48;11.20;;;9.40;99.90;;;;;;4919189;28;89944;-30
2023/03/18 05:01:30;;;;;;;16.95;10.95;;;9.40;99.90;;;;;;4920412;28;89539;-30
2023/03/18 05:03:56;;;;;;;13.38;11.38;;;9.40;99.90;;;;;;4919658;28;89631;-30
2023/03/18 05:06:28;;;;;;;12.20;10.95;;;9.40;99.90;;;;;;4919211;28;89780;-28
2023/03/18 05:08:55;;;;;;;16.02;10.18;;;9.40;99.90;;;;;;4918774;28;92132;-30
2023/03/18 05:11:21;;;;;;;10.63;8.75;;;9.40;99.90;;;;;;4918888;28;90319;-29
2023/03/18 05:13:47;;;;;;;13.57;10.40;;;9.30;99.90;;;;;;4920922;28;90207;-28
2023/03/18 05:16:14;;;;;;;11.00;9.93;;;9.30;99.90;;;;;;4919224;28;90283;-29
2023/03/18 05:18:40;;;;;;;13.27;9.50;;;9.30;99.90;;;;;;4919373;28;89839;-34
2023/03/18 05:21:06;;;;;;;10.65;9.43;;;9.30;99.90;;;;;;4920814;28;89685;-30
2023/03/18 05:23:32;;;;;;;13.43;11.43;;;9.30;99.90;;;;;;4919447;28;88084;-29
2023/03/18 05:25:58;;;;;;;12.70;10.68;;;9.30;99.90;;;;;;4919986;28;90463;-31
2023/03/18 05:28:24;;;;;;;15.50;11.63;;;9.30;99.90;;;;;;4918842;28;90298;-31
2023/03/18 05:30:51;;;;;;;13.50;10.63;;;9.30;99.90;;;;;;4918374;28;89240;-28
2023/03/18 05:33:17;;;;;;;16.25;11.35;;;9.30;99.90;;;;;;4919159;28;90380;-30
2023/03/18 05:35:43;;;;;;;19.02;10.45;;;9.30;99.90;;;;;;4919533;28;89941;-29
2023/03/18 05:38:09;;;;;;;13.30;10.57;;;9.30;99.90;;;;;;4919550;28;89717;-32
2023/03/18 05:40:35;;;;;;;18.58;10.52;;;9.20;99.90;;;;;;4919277;28;89460;-29
2023/03/18 05:43:01;;;;;;;11.75;10.65;;;9.20;99.90;;;;;;4918622;28;88292;-31
2023/03/18 05:45:26;;;;;;;14.82;11.15;;;9.20;99.90;;;;;;4919459;28;89821;-28
2023/03/18 05:47:52;;;;;;;13.65;11.75;;;9.20;99.90;;;;;;4919351;28;90196;-29
2023/03/18 05:50:31;;;;;;;13.88;11.20;;;9.20;99.90;;;;;;4919701;28;89859;-31
2023/03/18 05:52:59;;;;;;;16.20;11.88;;;9.20;99.90;;;;;;4918494;28;89208;-28
2023/03/18 05:55:27;;;;;;;15.45;11.15;;;9.20;99.90;;;;;;4919603;28;90556;-31
2023/03/18 05:57:53;;;;;;;16.88;12.30;;;9.20;99.90;;;;;;4918989;28;90761;-27
2023/03/18 06:00:19;;;;;;;13.10;10.77;;;9.20;99.90;;;;;;4918750;28;90475;-29
2023/03/18 06:02:45;;;;;;;14.98;10.45;;;9.20;99.90;;;;;;4919347;28;88407;-27
2023/03/18 06:05:11;;;;;;;12.13;10.88;;;9.20;99.90;;;;;;4918584;28;89576;-30
2023/03/18 06:07:38;;;;;;;15.45;11.95;;;9.20;99.90;;;;;;4917635;28;89605;-31
2023/03/18 06:10:04;;;;;;;16.58;11.88;;;9.20;99.90;;;;;;4918481;28;89395;-29
2023/03/18 06:12:30;;;;;;;16.10;12.48;;;9.20;99.90;;;;;;4907019;28;89123;-28
2023/03/18 06:14:56;;;;;;;18.48;11.68;;;9.20;99.90;;;;;;4918642;28;89965;-31
2023/03/18 06:17:22;;;;;;;14.65;10.95;;;9.20;99.90;;;;;;4919218;28;88950;-31
2023/03/18 06:19:48;;;;;;;11.23;10.10;;;9.20;99.90;;;;;;4917804;28;89940;-30
2023/03/18 06:22:15;;;;;;;15.95;12.63;;;9.20;99.90;;;;;;4918431;28;89739;-31
2023/03/18 06:24:41;;;;;;;15.73;13.75;;;9.20;99.90;;;;;;4918732;28;89869;-32
2023/03/18 06:27:07;;;;;;;16.70;12.00;;;9.20;99.90;;;;;;4918794;28;89952;-30
2023/03/18 06:29:34;;;;;;;13.57;10.82;;;9.20;99.90;;;;;;4918618;28;89429;-34
2023/03/18 06:32:00;;;;;;;13.95;12.27;;;9.30;99.90;;;;;;4905879;28;88460;-29
2023/03/18 06:34:25;;;;;;;13.93;10.82;;;9.30;99.90;;;;;;4921664;28;90476;-31
2023/03/18 06:36:52;;;;;;;18.50;12.95;;;9.30;99.90;;;;;;4922519;28;89762;-31
2023/03/18 06:39:18;;;;;;;15.35;11.73;;;9.30;99.90;;;;;;4922024;28;89743;-30
2023/03/18 06:41:44;;;;;;;15.05;12.05;;;9.30;99.90;;;;;;4921002;28;88599;-30
2023/03/18 06:44:12;;;;;;;17.88;13.93;;;9.40;99.90;;;;;;4921934;28;90237;-31
2023/03/18 06:46:38;;;;;;;19.55;11.75;;;9.40;99.90;;;;;;4921533;28;90360;-30
2023/03/18 06:49:03;;;;;;;16.90;14.00;;;9.40;99.90;;;;;;4921218;28;90620;-30
2023/03/18 06:51:29;;;;;;;19.77;12.65;;;9.40;99.90;;;;;;4922726;28;89657;-30
2023/03/18 06:53:55;;;;;;;18.30;13.13;;;9.50;99.90;;;;;;4920685;28;90559;-28
2023/03/18 06:56:22;;;;;;;18.45;13.63;;;9.50;99.90;;;;;;4922312;28;89791;-29
2023/03/18 06:58:48;;;;;;;20.83;13.73;;;9.60;99.90;;;;;;4921382;28;90093;-29
2023/03/18 07:01:13;;;;;;;17.77;14.15;;;9.60;99.90;;;;;;4921380;28;88357;-29
2023/03/18 07:03:39;;;;;;;17.38;13.65;;;9.60;99.90;;;;;;4921660;28;90602;-35
2023/03/18 07:06:06;;;;;;;18.05;13.95;;;9.70;99.90;;;;;;4921326;28;89661;-29
2023/03/18 07:08:32;;;;;;;22.23;14.90;;;9.70;99.90;;;;;;4921155;28;89925;-33
2023/03/18 07:10:57;;;;;;;18.15;14.80;;;9.80;99.90;;;;;;4920839;28;90292;-29
2023/03/18 07:13:23;;;;;;;18.55;12.55;;;9.80;99.90;;;;;;4921007;28;90289;-28
2023/03/18 07:15:49;;;;;;;16.95;12.93;;;9.80;99.90;;;;;;4921220;28;89456;-29
2023/03/18 07:18:15;;;;;;;15.00;13.07;;;9.90;99.90;;;;;;4921467;28;90504;-30
2023/03/18 07:20:42;;;;;;;17.80;13.98;;;10.00;99.90;;;;;;4920739;28;90170;-32
2023/03/18 07:23:08;;;;;;;16.75;13.35;;;10.00;99.90;;;;;;4921028;28;90158;-31
2023/03/18 07:25:35;;;;;;;15.73;13.35;;;10.00;99.90;;;;;;4920971;28;89871;-32
2023/03/18 07:28:00;;;;;;;17.80;13.45;;;10.00;99.90;;;;;;4921140;28;89393;-33
2023/03/18 07:30:27;;;;;;;16.02;14.13;;;10.10;99.90;;;;;;4921763;28;88759;-29
2023/03/18 07:32:54;;;;;;;14.07;12.40;;;10.10;99.90;;;;;;4920892;28;89333;-30
2023/03/18 07:35:20;;;;;;;15.48;12.80;;;10.20;99.90;;;;;;4920089;28;90362;-30
2023/03/18 07:37:46;;;;;;;18.02;13.50;;;10.20;99.90;;;;;;4921378;28;90256;-28
2023/03/18 07:40:13;;;;;;;15.88;13.50;;;10.20;99.90;;;;;;4920993;28;88811;-33
2023/03/18 07:42:39;;;;;;;25.02;14.27;;;10.20;99.90;;;;;;4920770;28;89834;-32
2023/03/18 07:45:06;;;;;;;16.58;13.32;;;10.30;99.90;;;;;;4919665;28;89761;-28
2023/03/18 07:47:32;;;;;;;19.20;15.57;;;10.30;99.90;;;;;;4920301;28;89704;-30
2023/03/18 07:49:58;;;;;;;19.48;14.38;;;10.30;99.90;;;;;;4920619;28;89173;-32
2023/03/18 07:52:24;;;;;;;18.00;13.52;;;10.30;99.90;;;;;;4920177;28;90347;-30
2023/03/18 07:54:51;;;;;;;21.65;14.73;;;10.30;99.90;;;;;;4920484;28;89641;-27
2023/03/18 07:57:17;;;;;;;16.20;13.75;;;10.30;99.90;;;;;;4920796;28;90243;-29
2023/03/18 07:59:42;;;;;;;17.08;14.48;;;10.40;99.90;;;;;;4919899;28;89397;-29
2023/03/18 08:02:12;;;;;;;16.52;12.77;;;10.40;99.90;;;;;;4919867;28;90245;-29
2023/03/18 08:04:38;;;;;;;20.05;15.77;;;10.30;99.90;;;;;;4920211;28;88317;-32
2023/03/18 08:07:04;;;;;;;21.70;15.82;;;10.30;99.90;;;;;;4920566;28;90152;-30
2023/03/18 08:09:29;;;;;;;20.60;14.90;;;10.30;99.90;;;;;;4919589;28;88479;-27
2023/03/18 08:11:55;;;;;;;18.20;15.45;;;10.30;99.90;;;;;;4919839;28;89186;-31
2023/03/18 08:14:21;;;;;;;17.20;14.95;;;10.30;99.90;;;;;;4919823;28;89966;-32
2023/03/18 08:16:46;;;;;;;18.65;16.25;;;10.30;99.90;;;;;;4920278;28;89609;-31
2023/03/18 08:19:12;;;;;;;21.83;16.55;;;10.40;99.90;;;;;;4920834;28;89581;-31
2023/03/18 08:21:38;;;;;;;20.20;15.85;;;10.30;99.90;;;;;;4919332;28;89149;-31
2023/03/18 08:24:04;;;;;;;23.15;16.88;;;10.40;99.90;;;;;;4919103;28;90305;-31
2023/03/18 08:26:29;;;;;;;23.95;17.98;;;10.40;99.90;;;;;;4919820;28;90681;-29
2023/03/18 08:28:55;;;;;;;23.42;17.80;;;10.40;99.90;;;;;;4920716;28;88918;-32
2023/03/18 08:31:21;;;;;;;26.00;17.17;;;10.30;99.90;;;;;;4919800;28;90012;-31
2023/03/18 08:33:48;;;;;;;19.55;16.02;;;10.30;99.90;;;;;;4919719;28;90135;-32
2023/03/18 08:36:14;;;;;;;20.90;18.58;;;10.40;99.90;;;;;;4920252;28;89359;-30
2023/03/18 08:38:40;;;;;;;25.25;19.33;;;10.30;99.90;;;;;;4918162;28;88433;-29
2023/03/18 08:41:05;;;;;;;26.73;20.02;;;10.40;99.90;;;;;;4917071;28;90433;-29
2023/03/18 08:43:32;;;;;;;25.92;19.98;;;10.40;99.90;;;;;;4918555;28;89634;-30
2023/03/18 08:45:57;;;;;;;25.48;21.13;;;10.50;99.90;;;;;;4916150;28;90383;-30
2023/03/18 08:48:24;;;;;;;30.98;19.05;;;10.50;99.90;;;;;;4916118;28;90693;-31
2023/03/18 08:50:51;;;;;;;23.52;19.95;;;10.60;99.90;;;;;;4916809;28;89657;-32
2023/03/18 08:53:17;;;;;;;27.02;19.95;;;10.70;99.90;;;;;;4917118;28;89954;-28
2023/03/18 08:55:43;;;;;;;31.02;20.77;;;10.80;99.90;;;;;;4917150;28;89576;-29
2023/03/18 08:58:09;;;;;;;25.83;20.33;;;10.90;99.90;;;;;;4916326;28;87884;-28
2023/03/18 09:00:37;;;;;;;25.85;20.33;;;11.00;99.90;;;;;;4916641;28;90255;-32
2023/03/18 09:03:03;;;;;;;27.15;20.35;;;11.10;99.90;;;;;;4917592;28;89406;-31
2023/03/18 09:05:29;;;;;;;24.63;20.65;;;11.30;99.90;;;;;;4916778;28;89816;-29
2023/03/18 09:07:57;;;;;;;33.05;23.55;;;11.30;99.90;;;;;;4916310;28;88144;-31
2023/03/18 09:10:23;;;;;;;22.63;19.73;;;11.50;99.90;;;;;;4916658;28;90111;-30
2023/03/18 09:12:49;;;;;;;29.50;22.52;;;11.60;99.90;;;;;;4916625;28;90318;-29
2023/03/18 09:15:19;;;;;;;31.15;23.10;;;11.70;99.90;;;;;;4916890;28;90231;-28
2023/03/18 09:17:44;;;;;;;29.08;21.25;;;11.80;99.90;;;;;;4916578;28;88590;-30
2023/03/18 09:20:12;;;;;;;25.55;22.08;;;11.80;99.90;;;;;;4917750;28;90885;-29
2023/03/18 09:22:40;;;;;;;24.17;21.30;;;11.90;99.90;;;;;;4917446;28;90591;-30
2023/03/18 09:25:06;;;;;;;26.02;22.05;;;12.10;99.90;;;;;;4916195;28;90137;-29
2023/03/18 09:27:32;;;;;;;29.95;22.92;;;12.20;99.90;;;;;;4917632;28;89067;-31
2023/03/18 09:29:58;;;;;;;27.38;21.88;;;12.40;99.90;;;;;;4917178;28;89754;-30
2023/03/18 09:32:24;;;;;;;30.55;22.45;;;12.70;99.90;;;;;;4917495;28;89533;-30
2023/03/18 09:34:50;;;;;;;27.10;21.85;;;13.00;99.90;;;;;;4917457;28;89596;-30
2023/03/18 09:37:17;;;;;;;26.02;21.48;;;13.20;99.90;;;;;;4917259;28;89901;-30
2023/03/18 09:39:43;;;;;;;27.92;21.55;;;13.30;99.90;;;;;;4916154;28;90070;-29
2023/03/18 09:42:12;;;;;;;29.15;21.40;;;13.50;99.90;;;;;;4917518;28;90328;-30
2023/03/18 09:44:38;;;;;;;;;;;13.80;99.90;;;;;;4917898;28;89864;-30
2023/03/18 09:47:36;;;;;;;29.70;22.23;;;13.60;99.90;;;;;;4917543;28;89905;-29
2023/03/18 09:50:23;;;;;;;32.00;24.45;;;13.40;99.90;;;;;;4904768;28;90290;-31
2023/03/18 09:53:04;;;;;;;33.33;25.15;;;13.50;99.90;;;;;;4916417;28;89553;-27
2023/03/18 09:55:45;;;;;;;29.02;23.65;;;13.80;99.90;;;;;;4916664;28;88938;-30
2023/03/18 09:59:03;;;;;;;33.95;23.42;;;13.90;99.90;;;;;;4907567;28;89608;-27
2023/03/18 10:01:31;;;;;;;30.52;23.23;;;14.20;99.90;;;;;;4875201;28;90858;-30
2023/03/18 10:04:09;;;;;;;30.48;22.80;;;14.50;99.90;;;;;;4916427;28;90856;-28
2023/03/18 10:06:37;;;;;;;29.73;23.33;;;14.90;99.90;;;;;;4917093;28;90211;-28
2023/03/18 10:09:25;;;;;;;35.80;24.70;;;15.20;99.90;;;;;;4919634;28;90328;-29
2023/03/18 10:11:58;;;;;;;23.17;20.67;;;15.00;99.90;;;;;;4920042;28;89449;-29
2023/03/18 10:14:32;;;;;;;26.70;21.38;;;14.60;99.90;;;;;;4920164;28;89355;-31
2023/03/18 10:17:13;;;;;;;27.83;22.27;;;14.50;99.90;;;;;;4920769;28;90319;-28
2023/03/18 10:19:59;;;;;;;24.70;20.63;;;14.40;99.90;;;;;;4920374;28;89899;-32
2023/03/18 10:22:44;;;;;;;26.70;20.00;;;14.80;99.90;;;;;;4909540;28;90048;-29
2023/03/18 10:25:13;;;;;;;21.13;18.92;;;14.50;99.90;;;;;;4920066;28;89640;-31
2023/03/18 10:27:58;;;;;;;28.17;21.80;;;14.30;99.90;;;;;;4920149;28;90013;-30
2023/03/18 10:30:38;;;;;;;26.73;21.42;;;14.20;99.90;;;;;;4906463;28;90468;-28
2023/03/18 10:33:16;;;;;;;27.10;21.33;;;14.20;99.90;;;;;;4919076;28;92512;-30
2023/03/18 10:35:52;;;;;;;29.35;20.98;;;14.60;99.90;;;;;;4919025;28;91192;-30
2023/03/18 10:38:22;;;;;;;31.17;22.13;;;15.00;99.90;;;;;;4918674;28;90237;-33
2023/03/18 10:40:49;;;;;;;23.27;19.52;;;15.40;99.90;;;;;;4919351;28;89691;-28
2023/03/18 10:43:24;;;;;;;24.92;22.23;;;15.70;99.90;;;;;;4920173;28;89177;-31
2023/03/18 10:46:13;;;;;;;25.80;20.48;;;15.50;99.90;;;;;;4919913;28;89411;-28
2023/03/18 10:48:49;;;;;;;21.15;18.70;;;15.40;99.90;;;;;;4910681;28;89345;-29
2023/03/18 10:51:31;;;;;;;21.13;17.30;;;15.00;99.90;;;;;;4918873;28;88648;-30
2023/03/18 10:54:01;;;;;;;17.35;14.57;;;14.80;99.90;;;;;;4919500;28;89856;-31
2023/03/18 10:56:27;;;;;;;17.65;15.02;;;14.50;99.90;;;;;;4919293;28;92625;-31
2023/03/18 10:58:53;;;;;;;16.38;14.45;;;14.30;99.90;;;;;;4918658;28;90300;-29
2023/03/18 11:01:21;;;;;;;14.68;13.15;;;14.40;99.90;;;;;;4919273;28;87920;-29
2023/03/18 11:03:50;;;;;;;22.95;16.35;;;14.30;99.90;;;;;;4919015;28;90169;-28
2023/03/18 11:06:24;;;;;;;17.25;13.00;;;14.30;99.90;;;;;;4919290;28;89596;-30
2023/03/18 11:08:58;;;;;;;17.25;15.55;;;14.40;99.90;;;;;;4919182;28;89123;-32
2023/03/18 11:11:31;;;;;;;18.30;16.42;;;14.60;99.90;;;;;;4919569;28;88373;-32
2023/03/18 11:14:00;;;;;;;19.65;15.73;;;14.90;99.90;;;;;;4919104;28;90130;-31
2023/03/18 11:16:31;;;;;;;17.52;15.65;;;14.90;99.90;;;;;;4918453;28;89700;-29
2023/03/18 11:18:57;;;;;;;16.05;14.38;;;14.90;99.90;;;;;;4917175;28;89318;-30
2023/03/18 11:21:25;;;;;;;16.10;14.30;;;15.00;99.90;;;;;;4917387;28;89512;-30
2023/03/18 11:24:23;;;;;;;17.13;15.45;;;15.10;99.90;;;;;;4918524;28;90002;-31
2023/03/18 11:26:54;;;;;;;15.70;14.10;;;15.60;99.90;;;;;;4917436;28;89259;-31
2023/03/18 11:29:24;;;;;;;13.52;12.30;;;15.50;99.90;;;;;;4918713;28;89466;-29
2023/03/18 11:31:57;;;;;;;15.57;13.52;;;15.90;99.90;;;;;;4919111;28;88716;-31
2023/03/18 11:34:34;;;;;;;13.23;11.75;;;16.00;99.90;;;;;;4919628;28;90249;-33
2023/03/18 11:37:05;;;;;;;13.98;12.20;;;16.20;99.90;;;;;;4919617;28;89728;-33
2023/03/18 11:39:36;;;;;;;12.70;11.52;;;16.30;99.90;;;;;;4919764;28;88750;-30
2023/03/18 11:42:16;;;;;;;14.38;11.73;;;16.40;99.90;;;;;;4919057;28;89896;-32
2023/03/18 11:44:41;;;;;;;9.85;8.23;;;16.30;99.90;;;;;;4918555;28;90368;-32
2023/03/18 11:47:35;;;;;;;12.75;7.47;;;16.40;99.90;;;;;;4919439;28;91408;-32
2023/03/18 11:50:02;;;;;;;9.77;8.77;;;16.50;99.90;;;;;;4905140;28;90278;-32
2023/03/18 11:53:09;;;;;;;12.25;8.57;;;16.50;99.90;;;;;;4978043;22;89639;-32
2023/03/18 11:55:47;;;;;;;10.30;9.18;;;16.50;99.90;;;;;;4939826;28;90023;-30
2023/03/18 11:58:32;;;;;;;10.35;9.35;;;16.60;99.90;;;;;;4939007;28;89104;-33
2023/03/18 12:01:10;;;;;;;10.68;9.57;;;16.80;99.90;;;;;;4938915;28;88962;-32
2023/03/18 12:03:56;;;;;;;11.90;10.00;;;17.00;99.90;;;;;;4938437;28;90487;-31
2023/03/18 12:06:31;;;;;;;11.10;9.95;;;17.00;99.90;;;;;;4937782;28;89145;-32
2023/03/18 12:09:10;;;;;;;12.60;11.30;;;17.00;99.90;;;;;;4938626;28;89668;-31
2023/03/18 12:11:58;;;;;;;11.80;10.68;;;16.90;99.90;;;;;;4938710;28;89202;-30
2023/03/18 12:14:52;;;;;;;10.27;9.18;;;17.00;99.90;;;;;;4940995;28;89714;-33
2023/03/18 12:17:40;;;;;;;12.05;9.95;;;17.00;99.90;;;;;;4938364;28;90133;-29
2023/03/18 12:20:52;;;;;;;10.93;9.80;;;16.90;99.90;;;;;;4937826;28;89313;-31
2023/03/18 12:23:59;;;;;;;12.52;9.95;;;16.40;99.90;;;;;;4951724;28;89545;-31
2023/03/18 12:26:49;;;;;;;11.48;10.45;;;16.40;99.90;;;;;;4938954;28;89519;-31
2023/03/18 12:29:47;;;;;;;12.25;10.02;;;16.40;99.90;;;;;;4947683;28;89752;-33
2023/03/18 12:32:32;;;;;;;14.68;11.48;;;16.70;99.90;;;;;;4936898;28;90494;-29
2023/03/18 12:35:09;;;;;;;16.88;12.52;;;16.70;99.90;;;;;;4946701;28;89559;-30
2023/03/18 12:37:37;;;;;;;12.43;10.60;;;16.70;99.90;;;;;;4938226;28;89507;-30
2023/03/18 12:40:13;;;;;;;13.57;10.63;;;16.60;99.90;;;;;;4936252;28;90143;-32
2023/03/18 12:42:44;;;;;;;12.93;11.27;;;16.40;99.90;;;;;;4937061;28;89698;-30
2023/03/18 12:45:16;;;;;;;13.23;11.48;;;16.40;99.90;;;;;;4946473;28;90857;-31
2023/03/18 12:47:48;;;;;;;12.18;10.80;;;16.40;99.90;;;;;;4946037;28;88328;-31
2023/03/18 12:50:17;;;;;;;11.43;10.35;;;16.40;99.90;;;;;;4937025;28;89868;-30